createdAt,value
2019-02-18T03:34:27.531Z,21.00
2019-02-18T03:36:56.793Z,22.80
2019-02-18T03:39:26.118Z,22.87
2019-02-18T03:41:55.492Z,23.97
2019-02-18T03:44:24.749Z,24.43
2019-02-18T03:46:54.078Z,24.00
2019-02-18T03:49:23.500Z,24.10
2019-02-18T03:51:52.827Z,23.47
2019-02-18T03:54:22.202Z,24.70
2019-02-18T03:56:51.729Z,25.97
2019-02-18T03:59:21.064Z,25.43
2019-02-18T04:01:50.448Z,24.80
2019-02-18T04:04:19.726Z,25.87
2019-02-18T04:06:49.009Z,25.50
2019-02-18T04:09:18.349Z,27.07
2019-02-18T04:11:47.920Z,24.83
2019-02-18T04:14:17.231Z,24.37
2019-02-18T04:16:46.595Z,25.87
2019-02-18T04:19:15.897Z,24.77
2019-02-18T04:21:45.204Z,25.23
2019-02-18T04:24:14.576Z,24.17
2019-02-18T04:26:44.044Z,25.67
2019-02-18T04:29:13.331Z,24.57
2019-02-18T04:31:42.674Z,24.60
2019-02-18T04:34:12.059Z,26.90
2019-02-18T04:36:41.336Z,25.43
2019-02-18T04:39:10.687Z,25.80
2019-02-18T04:41:40.137Z,27.80
2019-02-18T04:44:09.455Z,28.30
2019-02-18T04:46:38.737Z,28.90
2019-02-18T04:49:08.212Z,29.83
2019-02-18T04:51:37.510Z,29.40
2019-02-18T04:54:06.852Z,28.20
2019-02-18T04:56:36.421Z,28.67
2019-02-18T04:59:05.697Z,28.77
2019-02-18T05:01:35.090Z,27.57
2019-02-18T05:04:04.609Z,26.23
2019-02-18T05:06:34.001Z,27.07
2019-02-18T05:09:05.651Z,26.07
2019-02-18T05:11:35.440Z,23.90
2019-02-18T05:14:04.692Z,26.07
2019-02-18T05:16:34.013Z,22.93
2019-02-18T05:19:03.458Z,28.00
2019-02-18T05:21:32.771Z,26.23
2019-02-18T05:24:02.078Z,26.70
2019-02-18T05:26:31.447Z,27.23
2019-02-18T05:29:00.853Z,24.00
2019-02-18T05:31:30.164Z,25.33
2019-02-18T05:33:59.484Z,23.00
2019-02-18T05:36:28.804Z,20.53
2019-02-18T05:38:58.136Z,23.77
2019-02-18T05:41:27.636Z,24.67
2019-02-18T05:43:56.973Z,24.40
2019-02-18T05:46:26.407Z,23.27
2019-02-18T05:48:55.853Z,24.07
2019-02-18T05:51:25.164Z,24.67
2019-02-18T05:53:54.460Z,21.93
2019-02-18T05:56:24.064Z,25.73
2019-02-18T05:58:53.371Z,23.73
2019-02-18T06:01:22.702Z,24.23
2019-02-18T06:03:52.275Z,26.60
2019-02-18T06:06:21.556Z,26.40
2019-02-18T06:08:50.913Z,23.47
2019-02-18T06:11:20.343Z,23.47
2019-02-18T06:13:49.653Z,23.87
2019-02-18T06:16:18.981Z,22.50
2019-02-18T06:18:48.484Z,24.13
2019-02-18T06:21:17.817Z,25.53
2019-02-18T06:23:47.178Z,24.27
2019-02-18T06:26:16.604Z,21.67
2019-02-18T06:28:45.998Z,29.53
2019-02-18T06:31:15.318Z,28.00
2019-02-18T06:33:44.755Z,29.27
2019-02-18T06:36:14.202Z,29.20
2019-02-18T06:38:43.481Z,28.23
2019-02-18T06:41:13.000Z,29.63
2019-02-18T06:43:42.340Z,28.37
2019-02-18T06:46:22.367Z,25.77
2019-02-18T06:48:55.457Z,24.27
2019-02-18T06:51:24.999Z,24.77
2019-02-18T06:53:54.354Z,27.43
2019-02-18T06:56:40.567Z,24.90
2019-02-18T06:59:17.655Z,25.70
2019-02-18T07:02:11.678Z,23.33
2019-02-18T07:05:06.050Z,24.50
2019-02-18T07:07:44.621Z,24.27
2019-02-18T07:10:39.179Z,23.93
2019-02-18T07:13:08.645Z,25.73
2019-02-18T07:15:37.939Z,27.27
2019-02-18T07:18:07.294Z,27.07
2019-02-18T07:20:36.771Z,29.23
2019-02-18T07:23:06.072Z,28.30
2019-02-18T07:25:35.446Z,29.73
2019-02-18T07:28:05.176Z,28.70
2019-02-18T07:30:34.483Z,29.40
2019-02-18T07:33:03.830Z,29.17
2019-02-18T07:35:33.097Z,29.20
2019-02-18T07:38:02.403Z,30.03
2019-02-18T07:40:31.798Z,31.23
2019-02-18T07:43:01.328Z,33.67
2019-02-18T07:45:30.604Z,31.50
2019-02-18T07:47:59.861Z,33.17
2019-02-18T07:50:29.547Z,35.90
2019-02-18T07:52:58.849Z,36.07
2019-02-18T07:55:28.110Z,35.97
2019-02-18T07:57:57.640Z,38.37
2019-02-18T08:00:26.991Z,38.67
2019-02-18T08:02:56.395Z,39.10
2019-02-18T08:05:25.849Z,39.50
2019-02-18T08:07:55.114Z,40.60
2019-02-18T08:10:24.501Z,41.73
2019-02-18T08:12:53.824Z,41.90
2019-02-18T08:15:23.137Z,41.80
2019-02-18T08:17:52.493Z,40.37
2019-02-18T08:20:21.863Z,41.40
2019-02-18T08:22:51.154Z,41.73
2019-02-18T08:25:20.501Z,39.20
2019-02-18T08:27:49.788Z,39.43
2019-02-18T08:30:19.138Z,38.70
2019-02-18T08:32:48.488Z,39.20
2019-02-18T08:35:17.836Z,39.27
2019-02-18T08:37:47.166Z,37.97
2019-02-18T08:40:22.505Z,41.63
2019-02-18T08:42:47.641Z,40.27
2019-02-18T08:45:16.914Z,38.80
2019-02-18T08:47:46.204Z,39.37
2019-02-18T08:50:15.755Z,40.70
2019-02-18T08:52:45.106Z,39.70
2019-02-18T08:55:14.669Z,38.27
2019-02-18T08:57:44.144Z,38.97
2019-02-18T09:00:15.638Z,37.70
2019-02-18T09:02:45.207Z,36.70
2019-02-18T09:05:15.816Z,37.27
2019-02-18T09:07:45.167Z,35.33
2019-02-18T09:10:14.578Z,37.50
2019-02-18T09:12:43.888Z,35.07
2019-02-18T09:15:14.259Z,36.53
2019-02-18T09:17:44.046Z,36.10
2019-02-18T09:20:13.352Z,34.57
2019-02-18T09:22:52.046Z,34.77
2019-02-18T09:25:33.022Z,33.60
2019-02-18T09:28:02.555Z,36.03
2019-02-18T09:30:34.290Z,36.47
2019-02-18T09:33:03.826Z,36.60
2019-02-18T09:35:33.226Z,35.80
2019-02-18T09:38:02.529Z,36.17
2019-02-18T09:40:32.322Z,36.93
2019-02-18T09:43:01.575Z,36.57
2019-02-18T09:45:30.840Z,37.63
2019-02-18T09:48:00.368Z,37.83
2019-02-18T09:50:29.734Z,38.43
2019-02-18T09:52:59.104Z,38.43
2019-02-18T09:55:28.711Z,38.37
2019-02-18T09:57:57.993Z,38.83
2019-02-18T10:00:27.254Z,38.33
2019-02-18T10:02:56.715Z,38.40
2019-02-18T10:05:26.146Z,39.03
2019-02-18T10:07:55.637Z,40.13
2019-02-18T10:10:24.956Z,37.20
2019-02-18T10:12:54.289Z,39.67
2019-02-18T10:15:23.601Z,39.37
2019-02-18T10:17:52.916Z,39.10
2019-02-18T10:20:22.244Z,41.27
2019-02-18T10:22:51.533Z,39.13
2019-02-18T10:25:21.403Z,39.23
2019-02-18T10:27:50.720Z,38.70
2019-02-18T10:30:20.826Z,38.03
2019-02-18T10:32:50.286Z,37.47
2019-02-18T10:35:19.604Z,35.37
2019-02-18T10:37:55.020Z,34.60
2019-02-18T10:40:20.163Z,35.43
2019-02-18T10:42:49.468Z,35.40
2019-02-18T10:45:18.825Z,36.73
2019-02-18T10:47:48.204Z,38.03
2019-02-18T10:50:17.642Z,38.53
2019-02-18T10:52:46.895Z,39.60
2019-02-18T10:55:16.560Z,36.67
2019-02-18T10:57:45.936Z,35.67
2019-02-18T11:00:15.607Z,35.60
2019-02-18T11:02:45.845Z,33.77
2019-02-18T11:05:15.296Z,33.80
2019-02-18T11:07:44.604Z,34.63
2019-02-18T11:10:14.512Z,31.67
2019-02-18T11:12:43.768Z,32.90
2019-02-18T11:15:13.366Z,33.20
2019-02-18T11:17:43.090Z,32.57
2019-02-18T11:20:12.485Z,33.77
2019-02-18T11:22:41.813Z,32.60
2019-02-18T11:25:11.642Z,33.40
2019-02-18T11:27:41.028Z,34.30
2019-02-18T11:30:12.839Z,34.30
2019-02-18T11:32:42.148Z,35.30
2019-02-18T11:35:11.749Z,35.33
2019-02-18T11:37:41.169Z,34.50
2019-02-18T11:40:12.673Z,33.40
2019-02-18T11:42:42.127Z,34.73
2019-02-18T11:45:12.759Z,33.50
2019-02-18T11:47:42.012Z,33.53
2019-02-18T11:50:12.312Z,34.53
2019-02-18T11:52:41.708Z,34.17
2019-02-18T11:55:11.366Z,35.07
2019-02-18T11:57:40.848Z,37.20
2019-02-18T12:00:11.240Z,38.33
2019-02-18T12:02:40.593Z,37.93
2019-02-18T12:05:10.455Z,39.60
2019-02-18T12:07:39.836Z,39.97
2019-02-18T12:10:09.867Z,39.40
2019-02-18T12:12:39.546Z,37.77
2019-02-18T12:15:10.060Z,39.40
2019-02-18T12:17:39.337Z,41.03
2019-02-18T12:20:10.931Z,41.87
2019-02-18T12:22:40.319Z,41.73
2019-02-18T12:25:09.816Z,42.03
2019-02-18T12:27:39.805Z,43.00
2019-02-18T12:30:10.085Z,40.43
2019-02-18T12:32:39.482Z,40.37
2019-02-18T12:35:09.297Z,42.20
2019-02-18T12:37:38.578Z,40.93
2019-02-18T12:40:08.563Z,37.97
2019-02-18T12:42:38.162Z,40.10
2019-02-18T12:45:08.413Z,39.17
2019-02-18T12:47:37.865Z,39.20
2019-02-18T12:50:07.736Z,39.33
2019-02-18T12:52:37.093Z,38.87
2019-02-18T12:55:06.535Z,38.73
2019-02-18T12:57:36.214Z,37.47
2019-02-18T13:00:06.418Z,37.80
2019-02-18T13:02:43.688Z,36.83
2019-02-18T13:05:07.409Z,37.23
2019-02-18T13:07:36.787Z,37.93
2019-02-18T13:10:06.167Z,37.53
2019-02-18T13:12:35.425Z,37.37
2019-02-18T13:15:05.710Z,38.30
2019-02-18T13:17:35.064Z,37.17
2019-02-18T13:20:04.513Z,36.30
2019-02-18T13:22:33.901Z,36.70
2019-02-18T13:25:03.331Z,37.93
2019-02-18T13:27:32.768Z,38.37
2019-02-18T13:30:02.023Z,37.90
2019-02-18T13:32:31.380Z,35.80
2019-02-18T13:35:00.794Z,37.10
2019-02-18T13:37:30.226Z,37.63
2019-02-18T13:39:59.529Z,37.97
2019-02-18T13:42:29.074Z,37.40
2019-02-18T13:44:58.402Z,37.77
2019-02-18T13:47:27.670Z,36.53
2019-02-18T13:49:57.240Z,36.23
2019-02-18T13:52:26.531Z,37.33
2019-02-18T13:54:55.821Z,37.17
2019-02-18T13:57:25.357Z,35.90
2019-02-18T13:59:54.695Z,37.17
2019-02-18T14:02:24.042Z,37.60
2019-02-18T14:04:53.567Z,37.13
2019-02-18T14:07:22.849Z,36.63
2019-02-18T14:09:52.115Z,35.77
2019-02-18T14:12:21.407Z,37.77
2019-02-18T14:14:50.740Z,37.93
2019-02-18T14:17:20.043Z,37.73
2019-02-18T14:19:49.571Z,37.90
2019-02-18T14:22:19.003Z,38.47
2019-02-18T14:24:48.483Z,37.90
2019-02-18T14:27:17.798Z,37.20
2019-02-18T14:29:47.416Z,38.63
2019-02-18T14:32:16.765Z,38.53
2019-02-18T14:34:46.159Z,38.27
2019-02-18T14:37:15.426Z,38.40
2019-02-18T14:39:44.717Z,38.97
2019-02-18T14:42:14.188Z,38.53
2019-02-18T14:44:43.836Z,37.43
2019-02-18T14:47:13.260Z,38.40
2019-02-18T14:49:43.036Z,38.30
2019-02-18T14:52:12.865Z,38.47
2019-02-18T14:54:42.236Z,41.57
2019-02-18T14:57:11.710Z,40.07
2019-02-18T14:59:41.257Z,39.67
2019-02-18T15:02:10.865Z,40.73
2019-02-18T15:04:40.293Z,39.63
2019-02-18T15:07:09.645Z,39.87
2019-02-18T15:09:38.959Z,42.17
2019-02-18T15:12:08.760Z,40.57
2019-02-18T15:14:38.368Z,40.80
2019-02-18T15:17:07.645Z,39.60
2019-02-18T15:19:37.106Z,38.60
2019-02-18T15:22:06.384Z,39.00
2019-02-18T15:24:35.660Z,40.93
2019-02-18T15:27:05.159Z,40.50
2019-02-18T15:29:35.154Z,41.10
2019-02-18T15:32:04.712Z,41.37
2019-02-18T15:34:34.333Z,40.87
2019-02-18T15:37:03.667Z,41.80
2019-02-18T15:39:32.906Z,42.97
2019-02-18T15:42:02.347Z,42.37
2019-02-18T15:44:31.755Z,42.37
2019-02-18T15:47:01.199Z,42.73
2019-02-18T15:49:30.596Z,41.30
2019-02-18T15:51:59.920Z,42.20
2019-02-18T15:54:29.231Z,41.13
2019-02-18T15:56:58.754Z,42.40
2019-02-18T15:59:28.110Z,45.43
2019-02-18T16:01:57.427Z,45.63
2019-02-18T16:04:26.853Z,44.80
2019-02-18T16:06:56.204Z,43.53
2019-02-18T16:09:25.476Z,45.17
2019-02-18T16:11:54.889Z,44.70
2019-02-18T16:14:24.223Z,43.50
2019-02-18T16:16:53.570Z,44.27
2019-02-18T16:19:23.045Z,46.30
2019-02-18T16:21:52.395Z,46.10
2019-02-18T16:24:21.780Z,45.23
2019-02-18T16:26:51.315Z,48.03
2019-02-18T16:29:20.822Z,47.77
2019-02-18T16:31:50.128Z,47.43
2019-02-18T16:34:19.658Z,66.87
2019-02-18T16:36:48.995Z,72.90
2019-02-18T16:39:18.374Z,72.83
2019-02-18T16:41:47.925Z,78.03
2019-02-18T16:44:17.258Z,75.10
2019-02-18T16:46:46.517Z,81.47
2019-02-18T16:49:16.292Z,77.10
2019-02-18T16:51:45.724Z,62.03
2019-02-18T16:54:15.069Z,66.47
2019-02-18T16:56:44.629Z,74.63
2019-02-18T16:59:13.990Z,70.87
2019-02-18T17:01:43.305Z,66.77
2019-02-18T17:04:12.651Z,61.10
2019-02-18T17:06:42.072Z,58.40
2019-02-18T17:09:14.846Z,57.07
2019-02-18T17:11:44.213Z,51.03
2019-02-18T17:14:13.549Z,56.27
2019-02-18T17:16:42.946Z,61.83
2019-02-18T17:19:12.258Z,63.70
2019-02-18T17:21:41.597Z,60.20
2019-02-18T17:24:11.141Z,60.37
2019-02-18T17:26:40.596Z,57.87
2019-02-18T17:29:09.911Z,55.93
2019-02-18T17:31:39.352Z,55.03
2019-02-18T17:34:08.672Z,55.30
2019-02-18T17:36:38.002Z,52.57
2019-02-18T17:39:08.122Z,50.53
2019-02-18T17:41:37.648Z,52.40
2019-02-18T17:44:06.946Z,51.30
2019-02-18T17:46:36.417Z,54.50
2019-02-18T17:49:05.774Z,53.10
2019-02-18T17:51:35.110Z,50.60
2019-02-18T17:54:04.740Z,54.07
2019-02-18T17:56:34.329Z,51.47
2019-02-18T17:59:03.575Z,49.77
2019-02-18T18:01:32.929Z,50.93
2019-02-18T18:04:02.277Z,52.43
2019-02-18T18:06:31.649Z,51.10
2019-02-18T18:09:01.027Z,51.13
2019-02-18T18:11:30.691Z,52.17
2019-02-18T18:13:59.978Z,50.30
2019-02-18T18:16:29.287Z,47.20
2019-02-18T18:18:58.581Z,47.10
2019-02-18T18:21:27.936Z,38.87
2019-02-18T18:23:57.462Z,41.67
2019-02-18T18:26:26.786Z,42.63
2019-02-18T18:28:56.175Z,43.97
2019-02-18T18:31:25.637Z,46.87
2019-02-18T18:33:54.903Z,44.37
2019-02-18T18:36:24.326Z,49.57
2019-02-18T18:38:53.748Z,50.43
2019-02-18T18:41:23.124Z,52.57
2019-02-18T18:43:52.433Z,55.00
2019-02-18T18:46:21.687Z,56.00
2019-02-18T18:48:50.985Z,52.70
2019-02-18T18:51:20.259Z,44.03
2019-02-18T18:53:49.590Z,45.10
2019-02-18T18:56:19.011Z,52.50
2019-02-18T18:58:48.310Z,52.77
2019-02-18T19:01:17.702Z,55.93
2019-02-18T19:03:47.154Z,53.23
2019-02-18T19:06:16.580Z,51.57
2019-02-18T19:08:46.207Z,50.43
2019-02-18T19:11:15.536Z,49.40
2019-02-18T19:13:44.818Z,55.27
2019-02-18T19:16:14.141Z,68.83
2019-02-18T19:18:43.473Z,73.27
2019-02-18T19:21:12.833Z,77.83
2019-02-18T19:23:42.455Z,79.90
2019-02-18T19:26:11.671Z,85.43
2019-02-18T19:28:40.969Z,94.87
2019-02-18T19:31:10.257Z,95.07
2019-02-18T19:33:39.574Z,98.67
2019-02-18T19:36:08.931Z,94.67
2019-02-18T19:38:38.271Z,99.27
2019-02-18T19:41:07.622Z,112.20
2019-02-18T19:43:37.027Z,115.50
2019-02-18T19:46:06.525Z,108.87
2019-02-18T19:48:35.826Z,112.00
2019-02-18T19:51:05.397Z,105.40
2019-02-18T19:53:34.841Z,96.73
2019-02-18T19:56:04.145Z,92.40
2019-02-18T19:58:33.580Z,90.37
2019-02-18T20:01:03.030Z,98.60
2019-02-18T20:03:32.364Z,93.87
2019-02-18T20:06:01.889Z,87.47
2019-02-18T20:08:31.402Z,87.40
2019-02-18T20:11:00.774Z,83.80
2019-02-18T20:13:30.067Z,81.80
2019-02-18T20:15:59.528Z,83.73
2019-02-18T20:18:28.822Z,79.63
2019-02-18T20:20:58.240Z,77.07
2019-02-18T20:23:27.709Z,71.43
2019-02-18T20:25:57.050Z,76.73
2019-02-18T20:28:26.432Z,74.90
2019-02-18T20:30:55.922Z,74.17
2019-02-18T20:33:25.288Z,74.27
2019-02-18T20:35:54.592Z,77.60
2019-02-18T20:38:24.027Z,76.70
2019-02-18T20:40:53.285Z,76.40
2019-02-18T20:43:22.679Z,74.27
2019-02-18T20:45:52.126Z,71.80
2019-02-18T20:48:21.469Z,67.47
2019-02-18T20:50:50.780Z,67.83
2019-02-18T20:53:20.368Z,75.73
2019-02-18T20:55:49.689Z,73.23
2019-02-18T20:58:19.000Z,77.77
2019-02-18T21:00:48.530Z,75.47
2019-02-18T21:03:18.097Z,75.97
2019-02-18T21:05:47.450Z,79.63
2019-02-18T21:08:16.932Z,82.27
2019-02-18T21:10:46.276Z,87.53
2019-02-18T21:13:15.594Z,84.67
2019-02-18T21:15:45.206Z,86.80
2019-02-18T21:18:14.781Z,88.60
2019-02-18T21:20:44.225Z,85.00
2019-02-18T21:23:13.807Z,82.07
2019-02-18T21:25:43.892Z,64.20
2019-02-18T21:28:13.207Z,57.23
2019-02-18T21:30:42.644Z,55.97
2019-02-18T21:33:12.107Z,58.37
2019-02-18T21:35:41.450Z,61.37
2019-02-18T21:38:10.958Z,66.87
2019-02-18T21:40:40.308Z,74.20
2019-02-18T21:43:09.583Z,70.93
2019-02-18T21:45:39.181Z,66.10
2019-02-18T21:48:09.045Z,64.80
2019-02-18T21:50:38.346Z,71.07
2019-02-18T21:53:07.878Z,69.83
2019-02-18T21:55:37.260Z,68.43
2019-02-18T21:58:06.669Z,71.20
2019-02-18T22:00:36.256Z,60.33
2019-02-18T22:03:05.595Z,56.17
2019-02-18T22:05:34.951Z,55.37
2019-02-18T22:08:04.303Z,57.50
2019-02-18T22:10:33.595Z,63.60
2019-02-18T22:13:02.893Z,65.47
2019-02-18T22:15:32.468Z,68.60
2019-02-18T22:18:01.892Z,65.80
2019-02-18T22:20:31.274Z,68.87
2019-02-18T22:23:00.722Z,69.37
2019-02-18T22:25:30.053Z,71.33
2019-02-18T22:27:59.378Z,63.93
2019-02-18T22:30:28.910Z,56.73
2019-02-18T22:32:58.434Z,55.73
2019-02-18T22:35:27.718Z,55.73
2019-02-18T22:37:57.190Z,57.33
2019-02-18T22:40:26.498Z,55.93
2019-02-18T22:42:55.772Z,56.47
2019-02-18T22:45:25.289Z,56.33
2019-02-18T22:47:54.660Z,51.07
2019-02-18T22:50:23.975Z,60.47
2019-02-18T22:52:53.547Z,62.43
2019-02-18T22:55:22.866Z,66.20
2019-02-18T22:57:52.118Z,72.37
2019-02-18T23:00:59.389Z,74.23
2019-02-18T23:03:28.848Z,52.63
2019-02-18T23:05:58.229Z,52.00
2019-02-18T23:08:27.751Z,55.33
2019-02-18T23:10:57.105Z,58.43
2019-02-18T23:13:26.440Z,59.17
2019-02-18T23:15:56.536Z,63.73
2019-02-18T23:18:25.900Z,59.87
2019-02-18T23:20:55.215Z,59.10
2019-02-18T23:23:24.731Z,62.67
2019-02-18T23:25:54.072Z,68.43
2019-02-18T23:28:23.447Z,75.70
2019-02-18T23:30:53.084Z,74.63
2019-02-18T23:33:22.435Z,75.00
2019-02-18T23:35:51.705Z,75.83
2019-02-18T23:38:21.155Z,77.90
2019-02-18T23:40:50.505Z,76.07
2019-02-18T23:43:19.828Z,67.67
2019-02-18T23:45:49.588Z,78.60
2019-02-18T23:48:18.958Z,77.87
2019-02-18T23:50:48.280Z,79.10
2019-02-18T23:53:17.915Z,76.77
2019-02-18T23:55:47.298Z,85.40
2019-02-18T23:58:16.686Z,102.57
